Rushville, Indiana
Current Conditions -  °F | °C
As of 5:53 AM on Tuesday 21 Oct 2014 (Local Time) from KGEZ Reporting Station
Overcast Overcast  
Wind Chill: 45°   Ceiling: 5000
Heat Index: 48°   Visibility: 10mi
Dew Point: 45°   Wind: 6mph
Humidity: 89%   Direction: 310°NW
Pressure: 29.99"   Gusts: NA
Location:  39.61°N, 85.44°W
Report Text: KGEZ 210953Z AUTO 31005KT 10SM OVC050 09/07 A2999 RMK AO2 SLP153 T00890072
Loading
Personal Weather Stations






























Interactive Weather Map
Tropical Storm Tracking
New forecast layout! Learn more

10-Day Weather Forecast

Advertisements
Track Severe Weather on mobile